Time;durP1;ratioP1;P1;durP2;ratioP2;P2;SDS_P1;SDS_P2;PMS_P1;PMS_P2;Temp;Humidity;BMP_temperature;BMP_pressure;BME280_temperature;BME280_humidity;BME280_pressure;Samples;Min_cycle;Max_cycle;Signal;HPM_P1;HPM_P2
2022/10/29 00:00:22;;;;;;;;;;;;;;;17.07;63.75;99801.03;4490085;31;20014;-84
2022/10/29 00:02:48;;;;;;;;;;;;;;;17.08;63.70;99802.75;4504474;31;20343;-87
2022/10/29 00:05:13;;;;;;;;;;;;;;;17.11;63.67;99805.19;4504390;31;19994;-83
2022/10/29 00:07:38;;;;;;;;;;;;;;;17.10;63.74;99804.34;4504285;31;19986;-84
2022/10/29 00:10:07;;;;;;;;;;;;;;;17.10;63.70;99807.00;4489986;31;20003;-84
2022/10/29 00:12:32;;;;;;;;;;;;;;;17.13;63.59;99813.09;4504190;31;20384;-83
2022/10/29 00:14:57;;;;;;;;;;;;;;;17.14;63.51;99810.31;4504429;31;19974;-83
2022/10/29 00:17:23;;;;;;;;;;;;;;;16.87;64.00;99812.97;4489802;31;19988;-83
2022/10/29 00:19:48;;;;;;;;;;;;;;;16.94;64.24;99821.41;4504243;31;19984;-82
2022/10/29 00:22:13;;;;;;;;;;;;;;;16.81;64.67;99824.81;4489796;31;19995;-83
2022/10/29 00:24:39;;;;;;;;;;;;;;;16.77;64.81;99823.31;4489809;31;20010;-82
2022/10/29 00:27:04;;;;;;;;;;;;;;;16.92;64.36;99813.53;4504128;31;19975;-83
2022/10/29 00:29:29;;;;;;;;;;;;;;;16.93;64.25;99820.56;4504149;31;20052;-83
2022/10/29 00:31:55;;;;;;;;;;;;;;;16.98;64.08;99814.91;4504160;31;19972;-83
2022/10/29 00:34:20;;;;;;;;;;;;;;;16.85;64.37;99817.53;4504149;31;19978;-83
2022/10/29 00:36:45;;;;;;;;;;;;;;;16.84;64.25;99815.81;4504133;31;20006;-83
2022/10/29 00:39:13;;;;;;;;;;;;;;;16.87;64.15;99815.63;4504066;31;19971;-82
2022/10/29 00:41:38;;;;;;;;;;;;;;;16.86;64.14;99808.59;4483022;31;20315;-80
2022/10/29 00:44:21;;;;;;;;;;;;;;;16.84;64.10;99819.34;4472685;31;19964;-81
2022/10/29 00:46:48;;;;;;;;;;;;;;;16.96;63.79;99817.72;4495859;31;20004;-81
2022/10/29 00:49:13;;;;;;;;;;;;;;;16.96;63.83;99803.53;4480534;31;19983;-80
2022/10/29 00:51:39;;;;;;;;;;;;;;;16.87;63.86;99808.50;4475789;32;19982;-81
2022/10/29 00:54:06;;;;;;;;;;;;;;;16.96;63.81;99809.72;4491846;31;19999;-83
2022/10/29 00:56:32;;;;;;;;;;;;;;;17.02;63.71;99804.00;4489711;31;19995;-82
2022/10/29 00:58:57;;;;;;;;;;;;;;;17.02;63.74;99801.34;4503965;31;20323;-82
2022/10/29 01:01:22;;;;;;;;;;;;;;;17.03;63.79;99802.19;4489759;31;20016;-81
2022/10/29 01:03:48;;;;;;;;;;;;;;;17.06;63.73;99802.84;4503939;31;19971;-82
2022/10/29 01:06:13;;;;;;;;;;;;;;;17.08;63.66;99798.25;4489269;31;20243;-82
2022/10/29 01:08:38;;;;;;;;;;;;;;;17.09;63.72;99794.66;4504053;31;20026;-83
2022/10/29 01:11:09;;;;;;;;;;;;;;;17.10;63.70;99792.84;4502817;31;20023;-83
2022/10/29 01:13:41;;;;;;;;;;;;;;;16.99;63.78;99787.37;4503972;31;19971;-83
2022/10/29 01:16:23;;;;;;;;;;;;;;;17.03;63.68;99781.72;4503874;31;19980;-84
2022/10/29 01:18:53;;;;;;;;;;;;;;;17.02;63.75;99774.72;4487913;31;19980;-83
2022/10/29 01:21:37;;;;;;;;;;;;;;;17.08;63.67;99773.47;4486867;32;19990;-84
2022/10/29 01:24:05;;;;;;;;;;;;;;;17.08;63.68;99763.66;4488076;31;20040;-84
2022/10/29 01:26:30;;;;;;;;;;;;;;;17.07;63.54;99766.41;4488097;32;19987;-84
2022/10/29 01:28:56;;;;;;;;;;;;;;;17.10;63.46;99759.09;4487959;32;19967;-84
2022/10/29 01:31:21;;;;;;;;;;;;;;;17.08;63.46;99757.47;4490872;31;20011;-83
2022/10/29 01:33:54;;;;;;;;;;;;;;;17.04;63.38;99762.16;4502551;31;20186;-84
2022/10/29 01:36:25;;;;;;;;;;;;;;;16.98;63.28;99762.56;4502598;31;20031;-84
2022/10/29 01:38:59;;;;;;;;;;;;;;;16.97;63.46;99752.00;4503812;31;19979;-84
2022/10/29 01:41:31;;;;;;;;;;;;;;;17.00;63.43;99749.16;4502422;31;20323;-84
2022/10/29 01:44:05;;;;;;;;;;;;;;;17.01;63.46;99751.69;4503723;31;19998;-83
2022/10/29 01:46:33;;;;;;;;;;;;;;;17.01;63.50;99754.34;4502528;31;19975;-84
2022/10/29 01:49:00;;;;;;;;;;;;;;;16.93;63.88;99746.03;4489293;31;19999;-84
2022/10/29 01:51:27;;;;;;;;;;;;;;;16.96;63.88;99736.97;4503578;31;20334;-84
2022/10/29 01:53:52;;;;;;;;;;;;;;;16.92;63.92;99741.69;4502476;31;20020;-84
2022/10/29 01:56:18;;;;;;;;;;;;;;;16.94;63.96;99737.09;4489157;31;19987;-82
2022/10/29 01:58:45;;;;;;;;;;;;;;;16.93;64.00;99735.38;4503565;31;19998;-84
2022/10/29 02:01:30;;;;;;;;;;;;;;;16.90;63.96;99727.59;4502516;31;19985;-84
2022/10/29 02:03:55;;;;;;;;;;;;;;;16.95;63.90;99732.63;4502365;31;19981;-83
2022/10/29 02:06:20;;;;;;;;;;;;;;;16.96;63.92;99723.66;4503515;31;19978;-84
2022/10/29 02:08:48;;;;;;;;;;;;;;;16.93;63.96;99737.19;4503600;31;19976;-84
2022/10/29 02:11:23;;;;;;;;;;;;;;;16.82;64.23;99744.06;4503179;31;20073;-84
2022/10/29 02:13:49;;;;;;;;;;;;;;;16.87;64.17;99749.94;4489114;31;19971;-84
2022/10/29 02:16:14;;;;;;;;;;;;;;;16.88;64.09;99740.13;4489180;31;19983;-84
2022/10/29 02:18:40;;;;;;;;;;;;;;;16.89;63.96;99741.87;4501382;31;20014;-84
2022/10/29 02:21:06;;;;;;;;;;;;;;;16.40;65.61;99745.84;4503513;31;19963;-84
2022/10/29 02:23:31;;;;;;;;;;;;;;;16.54;65.12;99734.34;4503500;31;19985;-84
2022/10/29 02:25:56;;;;;;;;;;;;;;;16.69;64.80;99744.00;4503373;31;20661;-84
2022/10/29 02:28:24;;;;;;;;;;;;;;;16.75;64.64;99739.22;4503473;31;19988;-83
2022/10/29 02:30:50;;;;;;;;;;;;;;;16.80;64.40;99742.44;4502156;31;19975;-84
2022/10/29 02:33:15;;;;;;;;;;;;;;;16.51;64.80;99746.03;4503364;31;19975;-83
2022/10/29 02:35:40;;;;;;;;;;;;;;;16.41;65.37;99742.22;4503421;31;19982;-84
2022/10/29 02:38:05;;;;;;;;;;;;;;;16.34;65.43;99750.69;4503365;31;19975;-83
2022/10/29 02:40:30;;;;;;;;;;;;;;;16.58;64.65;99740.31;4503279;31;19971;-83
2022/10/29 02:42:56;;;;;;;;;;;;;;;16.68;64.28;99741.41;4503394;31;20326;-82
2022/10/29 02:45:21;;;;;;;;;;;;;;;16.71;64.15;99734.09;4488979;31;19979;-83
2022/10/29 02:47:46;;;;;;;;;;;;;;;16.73;64.12;99733.13;4503326;31;19979;-84
2022/10/29 02:50:12;;;;;;;;;;;;;;;16.70;64.12;99737.69;4503258;31;20287;-83
2022/10/29 02:52:37;;;;;;;;;;;;;;;16.39;65.00;99744.13;4503298;31;20063;-84
2022/10/29 02:55:02;;;;;;;;;;;;;;;16.55;64.56;99738.69;4503254;31;20319;-84
2022/10/29 02:57:27;;;;;;;;;;;;;;;16.38;64.98;99731.81;4503178;31;19983;-84
2022/10/29 02:59:53;;;;;;;;;;;;;;;16.60;64.32;99730.44;4503020;31;20244;-84
2022/10/29 03:02:18;;;;;;;;;;;;;;;16.43;64.57;99737.66;4502117;31;20012;-84
2022/10/29 03:04:44;;;;;;;;;;;;;;;16.61;64.40;99740.09;4501954;31;19972;-83
2022/10/29 03:07:09;;;;;;;;;;;;;;;16.16;65.39;99740.25;4501643;31;19978;-84
2022/10/29 03:09:34;;;;;;;;;;;;;;;16.18;65.27;99742.84;4501855;31;20265;-83
2022/10/29 03:12:02;;;;;;;;;;;;;;;16.28;65.41;99734.19;4502861;31;19967;-84
2022/10/29 03:14:27;;;;;;;;;;;;;;;16.43;64.79;99735.00;4503067;31;20031;-84
2022/10/29 03:16:52;;;;;;;;;;;;;;;16.55;64.63;99740.50;4501979;31;19991;-84
2022/10/29 03:19:17;;;;;;;;;;;;;;;16.58;64.51;99735.00;4501843;31;19967;-84
2022/10/29 03:21:43;;;;;;;;;;;;;;;16.58;64.37;99730.53;4502966;31;19974;-83
2022/10/29 03:24:08;;;;;;;;;;;;;;;16.64;64.30;99726.63;4502942;31;19968;-84
2022/10/29 03:26:33;;;;;;;;;;;;;;;16.57;64.41;99726.13;4502871;31;19976;-84
2022/10/29 03:28:58;;;;;;;;;;;;;;;16.59;64.43;99718.94;4502752;31;19967;-83
2022/10/29 03:31:24;;;;;;;;;;;;;;;16.31;65.30;99718.03;4501569;31;19979;-84
2022/10/29 03:33:49;;;;;;;;;;;;;;;16.39;64.99;99717.53;4502859;31;20349;-84
2022/10/29 03:36:14;;;;;;;;;;;;;;;15.99;65.86;99720.03;4501714;31;20028;-84
2022/10/29 03:38:39;;;;;;;;;;;;;;;16.41;64.92;99714.78;4502794;31;20328;-84
2022/10/29 03:41:09;;;;;;;;;;;;;;;16.52;64.61;99712.31;4502720;31;20273;-82
2022/10/29 03:43:35;;;;;;;;;;;;;;;16.22;65.73;99731.06;4501523;31;20459;-84
2022/10/29 03:46:00;;;;;;;;;;;;;;;16.28;65.24;99722.69;4502784;31;19991;-83
2022/10/29 03:48:25;;;;;;;;;;;;;;;16.36;64.96;99722.19;4501593;31;19971;-83
2022/10/29 03:50:55;;;;;;;;;;;;;;;16.49;64.56;99720.47;4502558;31;19971;-84
2022/10/29 03:53:20;;;;;;;;;;;;;;;16.54;64.45;99718.37;4501327;31;20031;-84
2022/10/29 03:55:45;;;;;;;;;;;;;;;16.57;64.55;99715.50;4501446;31;19983;-84
2022/10/29 03:58:11;;;;;;;;;;;;;;;16.61;64.54;99722.34;4501225;31;19989;-84
2022/10/29 04:00:36;;;;;;;;;;;;;;;16.60;64.53;99715.31;4502405;31;19983;-84
2022/10/29 04:03:01;;;;;;;;;;;;;;;16.65;64.48;99715.88;4502151;31;20013;-83
2022/10/29 04:05:26;;;;;;;;;;;;;;;16.67;64.55;99721.09;4502451;31;19975;-84
2022/10/29 04:07:54;;;;;;;;;;;;;;;16.68;64.48;99720.13;4501487;31;19971;-84
2022/10/29 04:10:19;;;;;;;;;;;;;;;16.67;64.64;99715.78;4501026;31;19967;-84
2022/10/29 04:12:45;;;;;;;;;;;;;;;16.67;64.59;99721.94;4501055;31;20016;-84
2022/10/29 04:15:10;;;;;;;;;;;;;;;16.68;64.66;99730.78;4502364;31;20267;-84
2022/10/29 04:17:36;;;;;;;;;;;;;;;16.71;64.68;99733.25;4502299;31;20004;-84
2022/10/29 04:20:04;;;;;;;;;;;;;;;16.70;64.58;99727.06;4502106;31;19968;-83
2022/10/29 04:22:29;;;;;;;;;;;;;;;16.70;64.49;99721.72;4502215;31;20140;-83
2022/10/29 04:24:54;;;;;;;;;;;;;;;16.70;64.47;99728.88;4487738;31;20008;-83
2022/10/29 04:27:19;;;;;;;;;;;;;;;16.69;64.52;99725.38;4502115;31;20007;-81
2022/10/29 04:29:47;;;;;;;;;;;;;;;16.21;65.64;99738.19;4502045;31;19990;-81
2022/10/29 04:32:12;;;;;;;;;;;;;;;16.54;65.00;99730.81;4502086;31;19983;-81
2022/10/29 04:34:37;;;;;;;;;;;;;;;16.59;64.92;99723.38;4502052;31;19994;-81
2022/10/29 04:37:03;;;;;;;;;;;;;;;16.60;64.96;99725.94;4500923;31;19963;-81
2022/10/29 04:39:28;;;;;;;;;;;;;;;16.60;64.84;99723.28;4501865;31;20008;-81
2022/10/29 04:41:53;;;;;;;;;;;;;;;16.60;64.81;99720.63;4502143;31;20291;-81
2022/10/29 04:44:19;;;;;;;;;;;;;;;16.60;64.88;99723.28;4502814;31;19979;-81
2022/10/29 04:46:44;;;;;;;;;;;;;;;16.63;64.87;99723.09;4502907;31;19989;-81
2022/10/29 04:49:09;;;;;;;;;;;;;;;16.67;64.68;99723.75;4504078;31;20243;-82
2022/10/29 04:51:34;;;;;;;;;;;;;;;16.49;64.99;99726.63;4504123;31;20102;-82
2022/10/29 04:54:03;;;;;;;;;;;;;;;16.61;64.74;99722.34;4504149;31;19990;-82
2022/10/29 04:56:29;;;;;;;;;;;;;;;16.64;64.61;99726.63;4504172;31;20740;-82
2022/10/29 04:58:54;;;;;;;;;;;;;;;16.62;64.54;99726.69;4504083;31;20020;-82
2022/10/29 05:01:19;;;;;;;;;;;;;;;16.62;64.58;99726.69;4504019;31;20243;-82
2022/10/29 05:03:44;;;;;;;;;;;;;;;16.55;64.59;99722.72;4504078;31;19972;-82
2022/10/29 05:06:10;;;;;;;;;;;;;;;16.55;64.52;99725.38;4503462;31;20576;-83
2022/10/29 05:08:35;;;;;;;;;;;;;;;16.35;64.93;99731.97;4503927;31;19976;-82
2022/10/29 05:11:04;;;;;;;;;;;;;;;16.50;64.36;99735.47;4489151;31;20008;-81
2022/10/29 05:13:31;;;;;;;;;;;;;;;16.37;64.44;99739.88;4504025;31;19983;-82
2022/10/29 05:15:57;;;;;;;;;;;;;;;16.50;64.03;99732.81;4503866;31;19975;-82
2022/10/29 05:18:22;;;;;;;;;;;;;;;16.31;64.48;99735.78;4489560;31;19963;-82
2022/10/29 05:20:47;;;;;;;;;;;;;;;16.48;63.86;99729.41;4503854;31;20403;-83
2022/10/29 05:23:12;;;;;;;;;;;;;;;16.35;64.03;99712.53;4502783;31;20005;-82
2022/10/29 05:25:38;;;;;;;;;;;;;;;16.44;63.70;99702.16;4502651;31;20359;-82
2022/10/29 05:28:14;;;;;;;;;;;;;;;16.30;64.13;99724.31;4503895;31;19989;-82
2022/10/29 05:30:39;;;;;;;;;;;;;;;16.46;63.59;99726.00;4503724;31;20031;-82
2022/10/29 05:33:08;;;;;;;;;;;;;;;16.50;63.42;99724.84;4503821;31;19994;-82
2022/10/29 05:35:33;;;;;;;;;;;;;;;16.56;63.39;99728.91;4503789;31;19976;-82
2022/10/29 05:37:59;;;;;;;;;;;;;;;16.58;63.35;99725.19;4502548;31;20008;-82
2022/10/29 05:40:24;;;;;;;;;;;;;;;16.61;63.32;99726.78;4503660;31;19994;-82
2022/10/29 05:42:50;;;;;;;;;;;;;;;16.61;63.17;99721.47;4502544;31;19983;-82
2022/10/29 05:45:15;;;;;;;;;;;;;;;16.56;62.93;99728.91;4502551;31;19976;-82
2022/10/29 05:47:43;;;;;;;;;;;;;;;16.57;62.79;99731.44;4489247;31;19959;-82
2022/10/29 05:50:11;;;;;;;;;;;;;;;16.55;62.84;99737.84;4503493;31;20051;-82
2022/10/29 05:52:37;;;;;;;;;;;;;;;16.48;62.88;99729.41;4501515;31;19991;-82
2022/10/29 05:55:02;;;;;;;;;;;;;;;16.51;62.65;99727.41;4502530;31;20322;-82
2022/10/29 05:57:27;;;;;;;;;;;;;;;16.54;62.52;99720.19;4503693;31;20348;-82
2022/10/29 05:59:52;;;;;;;;;;;;;;;16.41;62.62;99725.44;4502308;31;20118;-82
2022/10/29 06:02:18;;;;;;;;;;;;;;;16.34;62.84;99730.28;4502359;31;19976;-82
2022/10/29 06:04:46;;;;;;;;;;;;;;;16.33;63.00;99725.06;4491514;31;169713;-82
2022/10/29 06:07:11;;;;;;;;;;;;;;;16.43;62.81;99708.41;4502964;31;20105;-82
2022/10/29 06:09:36;;;;;;;;;;;;;;;16.48;62.61;99698.34;4502210;31;20019;-82
2022/10/29 06:12:02;;;;;;;;;;;;;;;16.48;62.60;99706.31;4503493;31;20009;-82
2022/10/29 06:14:27;;;;;;;;;;;;;;;16.29;63.21;99719.09;4502320;31;20007;-82
2022/10/29 06:16:52;;;;;;;;;;;;;;;16.41;62.97;99720.94;4503464;31;20293;-82
2022/10/29 06:19:17;;;;;;;;;;;;;;;16.12;63.86;99722.78;4502324;31;20024;-82
2022/10/29 06:21:43;;;;;;;;;;;;;;;16.39;63.45;99730.84;4503552;31;19968;-82
2022/10/29 06:24:09;;;;;;;;;;;;;;;16.31;63.84;99725.16;4502259;31;20311;-82
2022/10/29 06:26:36;;;;;;;;;;;;;;;16.41;63.67;99717.44;4503471;31;19971;-82
2022/10/29 06:29:01;;;;;;;;;;;;;;;16.47;63.70;99725.88;4502365;31;20489;-82
2022/10/29 06:31:26;;;;;;;;;;;;;;;16.50;63.61;99731.00;4488980;31;19988;-82
2022/10/29 06:33:51;;;;;;;;;;;;;;;16.44;63.76;99734.06;4503335;31;20006;-82
2022/10/29 06:36:17;;;;;;;;;;;;;;;16.50;63.64;99733.66;4502113;31;20310;-82
2022/10/29 06:38:42;;;;;;;;;;;;;;;15.95;65.16;99746.91;4503352;31;19991;-82
2022/10/29 06:41:08;;;;;;;;;;;;;;;15.92;64.81;99737.34;4502055;31;20023;-82
2022/10/29 06:43:33;;;;;;;;;;;;;;;16.11;64.43;99745.88;4502222;31;19975;-82
2022/10/29 06:45:59;;;;;;;;;;;;;;;16.08;64.37;99742.53;4503300;31;19959;-82
2022/10/29 06:48:24;;;;;;;;;;;;;;;16.27;63.94;99740.44;4502070;31;19979;-82
2022/10/29 06:50:50;;;;;;;;;;;;;;;16.41;63.80;99739.56;4501996;31;20003;-82
2022/10/29 06:53:15;;;;;;;;;;;;;;;16.48;63.38;99734.72;4488855;31;19975;-82
2022/10/29 06:55:40;;;;;;;;;;;;;;;16.51;63.09;99724.75;4502061;31;20008;-82
2022/10/29 06:58:06;;;;;;;;;;;;;;;16.50;62.96;99727.50;4502039;31;19987;-82
2022/10/29 07:00:32;;;;;;;;;;;;;;;16.58;62.75;99719.87;4503281;31;19972;-82
2022/10/29 07:02:58;;;;;;;;;;;;;;;16.64;62.57;99723.94;4488757;31;20070;-82
2022/10/29 07:05:23;;;;;;;;;;;;;;;16.49;62.80;99723.12;4502728;31;19963;-82
2022/10/29 07:07:48;;;;;;;;;;;;;;;16.58;62.58;99722.53;4503205;31;20013;-82
2022/10/29 07:10:14;;;;;;;;;;;;;;;16.59;62.42;99720.72;4503228;31;19975;-82
2022/10/29 07:12:42;;;;;;;;;;;;;;;16.44;62.53;99726.09;4501885;31;19979;-82
2022/10/29 07:15:07;;;;;;;;;;;;;;;16.46;62.89;99734.81;4501960;31;19984;-82
2022/10/29 07:17:33;;;;;;;;;;;;;;;16.60;62.52;99735.75;4502954;31;19998;-83
2022/10/29 07:19:58;;;;;;;;;;;;;;;16.71;62.11;99739.41;4503077;31;19976;-82
2022/10/29 07:22:23;;;;;;;;;;;;;;;16.41;62.55;99755.53;4503089;31;20307;-82
2022/10/29 07:24:49;;;;;;;;;;;;;;;16.62;61.83;99755.13;4502960;31;19964;-82
2022/10/29 07:27:14;;;;;;;;;;;;;;;16.41;62.35;99766.16;4502875;31;19975;-83
2022/10/29 07:29:39;;;;;;;;;;;;;;;16.03;63.41;99774.75;4488399;31;20011;-82
2022/10/29 07:32:05;;;;;;;;;;;;;;;15.57;64.66;99782.78;4502963;31;20002;-82
2022/10/29 07:34:30;;;;;;;;;;;;;;;16.29;62.74;99769.59;4501676;31;20331;-82
2022/10/29 07:36:55;;;;;;;;;;;;;;;16.19;62.89;99763.16;4501582;31;20010;-82
2022/10/29 07:39:21;;;;;;;;;;;;;;;16.41;62.26;99755.53;4502835;31;20017;-82
2022/10/29 07:41:46;;;;;;;;;;;;;;;16.61;61.74;99751.63;4502730;31;19976;-82
2022/10/29 07:44:12;;;;;;;;;;;;;;;16.72;61.53;99750.91;4502709;31;20291;-82
2022/10/29 07:46:37;;;;;;;;;;;;;;;16.82;61.57;99745.88;4502687;31;20007;-82
2022/10/29 07:49:04;;;;;;;;;;;;;;;16.93;61.04;99745.19;4502620;31;20008;-82
2022/10/29 07:51:30;;;;;;;;;;;;;;;16.97;61.00;99752.00;4502631;31;20022;-82
2022/10/29 07:53:55;;;;;;;;;;;;;;;17.02;60.65;99747.25;4501498;31;19972;-82
2022/10/29 07:56:20;;;;;;;;;;;;;;;17.10;60.20;99735.13;4502463;31;19975;-83
2022/10/29 07:58:45;;;;;;;;;;;;;;;17.17;59.92;99738.25;4501305;31;19972;-82
2022/10/29 08:01:11;;;;;;;;;;;;;;;17.23;59.57;99740.50;4502340;31;19986;-82
2022/10/29 08:03:36;;;;;;;;;;;;;;;16.88;60.83;99734.81;4501164;31;19963;-82
2022/10/29 08:06:01;;;;;;;;;;;;;;;17.13;60.44;99734.06;4502442;31;19976;-82
2022/10/29 08:08:26;;;;;;;;;;;;;;;17.19;60.32;99730.12;4502432;31;19972;-82
2022/10/29 08:10:52;;;;;;;;;;;;;;;17.29;59.83;99745.41;4502200;31;20303;-82
2022/10/29 08:13:17;;;;;;;;;;;;;;;16.99;60.62;99750.94;4501247;31;20307;-82
2022/10/29 08:15:44;;;;;;;;;;;;;;;17.18;60.36;99739.94;4501304;31;19995;-82
2022/10/29 08:18:10;;;;;;;;;;;;;;;16.06;64.02;99753.28;4504394;31;19987;-82
2022/10/29 08:20:36;;;;;;;;;;;;;;;16.92;61.24;99741.69;4503309;31;19986;-82
2022/10/29 08:23:01;;;;;;;;;;;;;;;17.03;60.51;99746.28;4504266;31;19971;-82
2022/10/29 08:25:26;;;;;;;;;;;;;;;17.11;60.30;99751.94;4503001;31;20328;-82
2022/10/29 08:27:58;;;;;;;;;;;;;;;17.30;60.00;99749.75;4502879;31;20080;-82
2022/10/29 08:30:23;;;;;;;;;;;;;;;16.31;62.74;99760.56;4503898;31;20323;-82
2022/10/29 08:32:49;;;;;;;;;;;;;;;17.02;60.96;99749.91;4504224;31;19971;-82
2022/10/29 08:35:14;;;;;;;;;;;;;;;17.24;60.68;99741.34;4504213;31;19975;-82
2022/10/29 08:37:42;;;;;;;;;;;;;;;17.04;60.89;99756.81;4502682;31;20247;-83
2022/10/29 08:40:28;;;;;;;;;;;;;;;16.96;60.35;99755.59;4504210;31;19994;-83
2022/10/29 08:43:08;;;;;;;;;;;;;;;17.10;60.68;99759.09;4503819;31;20038;-82
2022/10/29 08:45:35;;;;;;;;;;;;;;;17.39;60.05;99742.13;4503038;31;19998;-82
2022/10/29 08:48:07;;;;;;;;;;;;;;;17.46;59.71;99736.28;4489694;31;20026;-82
2022/10/29 08:50:32;;;;;;;;;;;;;;;17.62;59.30;99722.75;4502929;31;19986;-83
2022/10/29 08:52:58;;;;;;;;;;;;;;;17.43;59.96;99715.16;4502882;31;20019;-83
2022/10/29 08:55:25;;;;;;;;;;;;;;;17.60;59.66;99723.81;4502876;31;19988;-82
2022/10/29 08:57:51;;;;;;;;;;;;;;;17.66;59.28;99736.72;4504117;31;20001;-83
2022/10/29 09:00:18;;;;;;;;;;;;;;;17.84;58.54;99723.97;4502898;31;20307;-83
2022/10/29 09:02:43;;;;;;;;;;;;;;;17.91;58.48;99719.91;4502852;31;20288;-82
2022/10/29 09:05:13;;;;;;;;;;;;;;;18.03;58.10;99731.53;4503893;31;19971;-83
2022/10/29 09:07:51;;;;;;;;;;;;;;;17.52;59.08;99735.00;4502872;31;20381;-83
2022/10/29 09:10:32;;;;;;;;;;;;;;;17.93;58.59;99739.31;4489581;31;19985;-82
2022/10/29 09:13:26;;;;;;;;;;;;;;;17.70;59.09;99722.22;4502678;31;19968;-82
2022/10/29 09:16:10;;;;;;;;;;;;;;;17.42;59.84;99724.13;4500424;31;20002;-82
2022/10/29 09:18:44;;;;;;;;;;;;;;;17.76;59.23;99728.94;4504303;31;20231;-83
2022/10/29 09:21:10;;;;;;;;;;;;;;;18.23;57.75;99722.09;4503899;31;20039;-83
2022/10/29 09:23:38;;;;;;;;;;;;;;;18.43;56.95;99720.69;4503912;31;19975;-82
2022/10/29 09:26:04;;;;;;;;;;;;;;;18.72;56.40;99725.72;4503840;31;20004;-83
2022/10/29 09:28:35;;;;;;;;;;;;;;;18.63;56.50;99720.06;4502601;31;19980;-83
2022/10/29 09:31:17;;;;;;;;;;;;;;;18.85;56.19;99734.53;4503733;31;20374;-83
2022/10/29 09:33:43;;;;;;;;;;;;;;;19.18;55.03;99727.66;4489393;31;19994;-82
2022/10/29 09:36:13;;;;;;;;;;;;;;;19.23;54.49;99737.00;4503753;31;19983;-83
2022/10/29 09:38:40;;;;;;;;;;;;;;;19.33;54.22;99723.81;4502670;31;20031;-83
2022/10/29 09:41:07;;;;;;;;;;;;;;;19.27;54.37;99716.28;4503927;31;20247;-83
2022/10/29 09:43:36;;;;;;;;;;;;;;;19.49;54.01;99718.16;4502627;31;20042;-83
2022/10/29 09:46:20;;;;;;;;;;;;;;;19.30;54.88;99708.03;4503879;31;20028;-83
2022/10/29 09:48:54;;;;;;;;;;;;;;;19.62;54.39;99704.69;4504024;31;20001;-83
2022/10/29 09:51:31;;;;;;;;;;;;;;;18.83;56.74;99707.09;4503702;31;19972;-83
2022/10/29 09:53:56;;;;;;;;;;;;;;;19.31;54.78;99704.37;4503747;31;19982;-83
2022/10/29 09:56:21;;;;;;;;;;;;;;;19.09;55.44;99707.00;4502326;31;19999;-83
2022/10/29 09:58:48;;;;;;;;;;;;;;;19.24;54.80;99706.69;4502638;31;20016;-83
2022/10/29 10:01:13;;;;;;;;;;;;;;;19.26;54.75;99711.91;4502631;31;19979;-83
2022/10/29 10:03:44;;;;;;;;;;;;;;;19.23;54.70;99709.47;4502387;31;19967;-83
2022/10/29 10:06:10;;;;;;;;;;;;;;;19.20;54.67;99707.00;4503684;31;19998;-82
2022/10/29 10:08:57;;;;;;;;;;;;;;;19.02;55.01;99707.44;4502517;31;19988;-83
2022/10/29 10:11:23;;;;;;;;;;;;;;;19.04;55.19;99700.19;4503357;31;19986;-83
2022/10/29 10:13:58;;;;;;;;;;;;;;;18.97;55.16;99695.41;4503494;31;19968;-83
2022/10/29 10:16:23;;;;;;;;;;;;;;;18.95;55.43;99698.19;4502491;31;20309;-82
2022/10/29 10:18:49;;;;;;;;;;;;;;;18.95;55.60;99700.00;4502362;31;19988;-83
2022/10/29 10:21:30;;;;;;;;;;;;;;;18.92;55.73;99690.41;4488879;31;19972;-83
2022/10/29 10:23:59;;;;;;;;;;;;;;;18.88;55.76;99691.59;4503606;31;19968;-83
2022/10/29 10:26:38;;;;;;;;;;;;;;;18.85;55.78;99686.47;4502351;31;20025;-82
2022/10/29 10:29:23;;;;;;;;;;;;;;;18.85;55.89;99681.13;4503445;31;20355;-83
2022/10/29 10:31:49;;;;;;;;;;;;;;;18.85;56.06;99675.81;4502226;31;20037;-82
2022/10/29 10:34:14;;;;;;;;;;;;;;;18.99;55.90;99672.97;4502061;31;19967;-83
2022/10/29 10:36:41;;;;;;;;;;;;;;;18.79;56.10;99686.91;4503403;31;19968;-82
2022/10/29 10:39:12;;;;;;;;;;;;;;;18.46;57.05;99683.09;4502789;31;20326;-83
2022/10/29 10:41:38;;;;;;;;;;;;;;;18.43;57.15;99686.84;4502234;31;19982;-83
2022/10/29 10:44:03;;;;;;;;;;;;;;;18.49;56.92;99687.38;4489034;31;20024;-83
2022/10/29 10:46:33;;;;;;;;;;;;;;;18.64;56.67;99684.44;4503289;31;19979;-83
2022/10/29 10:48:59;;;;;;;;;;;;;;;18.91;56.19;99671.81;4488951;31;19999;-82
2022/10/29 10:51:31;;;;;;;;;;;;;;;18.60;56.97;99672.28;4488797;31;20031;-82
2022/10/29 10:53:57;;;;;;;;;;;;;;;18.67;56.70;99667.31;4502017;31;20292;-82
2022/10/29 10:56:22;;;;;;;;;;;;;;;18.79;55.81;99665.56;4502161;31;19979;-83
2022/10/29 10:58:49;;;;;;;;;;;;;;;18.60;56.89;99664.28;4502086;31;20067;-82
2022/10/29 11:01:17;;;;;;;;;;;;;;;18.89;55.83;99671.97;4502031;31;20697;-82
2022/10/29 11:03:46;;;;;;;;;;;;;;;19.05;55.41;99660.97;4502073;31;20028;-82
2022/10/29 11:06:13;;;;;;;;;;;;;;;18.68;55.86;99658.37;4501296;31;19984;-83
2022/10/29 11:08:44;;;;;;;;;;;;;;;19.02;55.05;99654.03;4502944;31;19983;-83
2022/10/29 11:11:09;;;;;;;;;;;;;;;19.05;55.22;99645.78;4501695;31;19983;-82
2022/10/29 11:13:34;;;;;;;;;;;;;;;18.56;56.05;99641.44;4503276;31;19991;-83
2022/10/29 11:16:15;;;;;;;;;;;;;;;18.78;55.95;99647.84;4501801;31;20307;-83
2022/10/29 11:18:46;;;;;;;;;;;;;;;19.14;54.91;99638.91;4503166;31;19994;-83
2022/10/29 11:21:13;;;;;;;;;;;;;;;18.97;55.23;99650.03;4502996;31;19971;-83
2022/10/29 11:23:42;;;;;;;;;;;;;;;19.23;54.70;99642.69;4501857;31;20255;-83
2022/10/29 11:26:09;;;;;;;;;;;;;;;18.66;56.04;99646.94;4501722;31;19983;-82
2022/10/29 11:28:38;;;;;;;;;;;;;;;19.22;54.76;99633.81;4501967;31;20007;-82
2022/10/29 11:31:12;;;;;;;;;;;;;;;19.40;54.34;99636.88;4488408;31;19985;-82
2022/10/29 11:33:49;;;;;;;;;;;;;;;19.51;53.79;99637.84;4488586;31;19986;-83
2022/10/29 11:36:19;;;;;;;;;;;;;;;18.64;56.17;99646.22;4503036;31;20364;-82
2022/10/29 11:38:44;;;;;;;;;;;;;;;18.84;55.57;99640.25;4501795;31;20048;-82
2022/10/29 11:41:15;;;;;;;;;;;;;;;19.37;54.36;99626.44;4502861;31;19971;-83
2022/10/29 11:43:40;;;;;;;;;;;;;;;19.38;54.19;99628.13;4501814;31;20299;-83
2022/10/29 11:46:11;;;;;;;;;;;;;;;19.63;53.58;99631.56;4501474;31;19998;-83
2022/10/29 11:48:40;;;;;;;;;;;;;;;18.81;54.72;99627.16;4501715;31;20311;-82
2022/10/29 11:51:05;;;;;;;;;;;;;;;19.32;53.81;99625.94;4501199;31;20071;-82
2022/10/29 11:53:49;;;;;;;;;;;;;;;19.52;53.37;99618.19;4502696;31;19971;-82
2022/10/29 11:56:26;;;;;;;;;;;;;;;19.43;53.53;99617.06;4502871;31;19983;-82
2022/10/29 11:58:53;;;;;;;;;;;;;;;19.58;53.35;99612.34;4501780;31;20006;-83
2022/10/29 12:01:28;;;;;;;;;;;;;;;19.27;53.64;99621.94;4501636;31;19980;-83
2022/10/29 12:04:02;;;;;;;;;;;;;;;18.83;54.65;99627.00;4502457;31;20015;-83
2022/10/29 12:06:38;;;;;;;;;;;;;;;18.82;54.61;99625.31;4501424;31;20331;-83
2022/10/29 12:09:22;;;;;;;;;;;;;;;18.43;55.83;99617.47;4502632;31;20346;-83
2022/10/29 12:11:53;;;;;;;;;;;;;;;18.56;55.38;99620.09;4502284;31;19972;-82
2022/10/29 12:14:25;;;;;;;;;;;;;;;18.96;54.73;99619.78;4502315;31;20129;-82
2022/10/29 12:17:22;;;;;;;;;;;;;;;19.28;54.24;99603.13;4501082;31;20251;-83
2022/10/29 12:19:56;;;;;;;;;;;;;;;19.49;53.72;99597.03;4437426;32;20423;-82
2022/10/29 12:22:22;;;;;;;;;;;;;;;19.25;53.98;99601.50;4424509;32;19988;-82
2022/10/29 12:24:59;;;;;;;;;;;;;;;18.65;55.21;99602.53;4437405;32;20355;-83
2022/10/29 12:27:43;;;;;;;;;;;;;;;19.35;53.64;99593.62;4437387;32;19989;-83
2022/10/29 12:30:09;;;;;;;;;;;;;;;19.32;53.21;99596.56;4437442;32;20415;-82
2022/10/29 12:32:46;;;;;;;;;;;;;;;19.33;53.29;99584.03;4424439;32;19997;-82
2022/10/29 12:35:16;;;;;;;;;;;;;;;19.05;54.38;99572.84;4437368;32;19973;-83
2022/10/29 12:38:00;;;;;;;;;;;;;;;19.21;54.13;99575.16;4424498;32;20040;-83
2022/10/29 12:40:37;;;;;;;;;;;;;;;19.25;54.02;99566.78;4437244;32;19988;-82
2022/10/29 12:43:03;;;;;;;;;;;;;;;19.19;54.18;99569.09;4424280;32;19991;-83
2022/10/29 12:45:38;;;;;;;;;;;;;;;19.19;54.36;99563.75;4424284;32;19973;-82
2022/10/29 12:48:12;;;;;;;;;;;;;;;19.05;54.69;99557.66;4424265;32;20000;-82
2022/10/29 12:50:47;;;;;;;;;;;;;;;19.06;54.60;99558.50;4424310;32;20245;-83